createdAt,value
2018-07-11T00:04:43.474Z,3.2
2018-07-11T00:09:45.805Z,6.6
2018-07-11T00:14:48.131Z,6.1
2018-07-11T00:19:50.363Z,4.7
2018-07-11T00:24:52.825Z,5.7
2018-07-11T00:29:54.919Z,6.1
2018-07-11T00:34:57.267Z,6.7
2018-07-11T00:39:59.528Z,5.9
2018-07-11T00:45:02.183Z,7.2
2018-07-11T00:50:04.075Z,5.3
2018-07-11T00:55:06.427Z,3.8
2018-07-11T01:00:08.652Z,6.9
2018-07-11T01:05:11.151Z,6.8
2018-07-11T01:10:13.258Z,6.7
2018-07-11T01:15:15.629Z,4.2
2018-07-11T01:20:17.829Z,4.7
2018-07-11T01:25:20.280Z,10.8
2018-07-11T01:30:22.583Z,2.3
2018-07-11T01:35:24.852Z,5.9
2018-07-11T01:40:27.222Z,5.7
2018-07-11T01:45:29.340Z,6.1
2018-07-11T01:50:31.612Z,4.9
2018-07-11T01:55:33.815Z,6.6
2018-07-11T02:00:36.242Z,5.9
2018-07-11T02:05:38.520Z,5.1
2018-07-11T02:10:40.826Z,4.5
2018-07-11T02:15:43.109Z,5.6
2018-07-11T02:20:45.350Z,4.2
2018-07-11T02:25:47.651Z,6.7
2018-07-11T02:30:49.952Z,7
2018-07-11T02:35:52.439Z,7.7
2018-07-11T02:40:54.629Z,3.3
2018-07-11T02:45:56.830Z,4.2
2018-07-11T02:50:59.188Z,5.3
2018-07-11T02:56:01.419Z,4.4
2018-07-11T03:01:03.735Z,5
2018-07-11T03:06:06.065Z,3.8
2018-07-11T03:11:08.404Z,4.3
2018-07-11T03:16:10.566Z,2.4
2018-07-11T03:21:12.885Z,3.7
2018-07-11T03:26:15.306Z,3
2018-07-11T03:31:17.422Z,3
2018-07-11T03:36:19.745Z,5.1
2018-07-11T03:41:22.128Z,5.9
2018-07-11T03:46:24.486Z,3.9
2018-07-11T03:51:26.649Z,6.1
2018-07-11T03:56:29.023Z,3.9
2018-07-11T04:01:31.319Z,4.4
2018-07-11T04:06:33.529Z,3
2018-07-11T04:11:35.948Z,6.9
2018-07-11T04:16:38.153Z,7.2
2018-07-11T04:21:40.458Z,4.5
2018-07-11T04:26:42.764Z,4.5
2018-07-11T04:31:45.084Z,3.2
2018-07-11T04:36:47.256Z,5.1
2018-07-11T04:47:07.705Z,8.1
2018-07-11T04:52:10.185Z,4.1
2018-07-11T04:57:12.277Z,7.5
2018-07-11T05:07:24.849Z,7.9
2018-07-11T05:12:27.187Z,4.2
2018-07-11T05:17:29.546Z,5.8
2018-07-11T05:22:31.744Z,12.2
2018-07-11T05:27:34.021Z,15.5
2018-07-11T05:32:36.367Z,8.2
2018-07-11T05:37:38.603Z,10
2018-07-11T05:42:40.901Z,8.1
2018-07-11T05:47:43.286Z,6.9
2018-07-11T05:52:45.512Z,4.9
2018-07-11T05:57:47.840Z,6
2018-07-11T06:02:50.017Z,4.6
2018-07-11T06:07:52.416Z,4.9
2018-07-11T06:12:54.612Z,4.4
2018-07-11T06:17:56.977Z,2.3
2018-07-11T06:22:59.403Z,4.3
2018-07-11T06:28:01.652Z,4.6
2018-07-11T06:33:03.757Z,3.2
2018-07-11T06:38:06.131Z,2.1
2018-07-11T06:43:08.466Z,6.3
2018-07-11T06:48:10.845Z,2.4
2018-07-11T06:53:13.019Z,2.3
2018-07-11T06:58:15.312Z,4
2018-07-11T07:03:17.528Z,3.5
2018-07-11T07:08:19.987Z,2.9
2018-07-11T07:13:22.248Z,4.2
2018-07-11T07:18:24.500Z,2.4
2018-07-11T07:23:26.971Z,5.2
2018-07-11T07:28:29.110Z,3.9
2018-07-11T07:33:31.314Z,1.3
2018-07-11T07:38:33.737Z,3.4
2018-07-11T07:43:36.024Z,1.8
2018-07-11T07:48:38.194Z,1.8
2018-07-11T07:53:40.578Z,3.7
2018-07-11T07:58:42.906Z,2
2018-07-11T08:03:45.086Z,1.3
2018-07-11T08:08:47.421Z,1.4
2018-07-11T08:13:49.752Z,1.3
2018-07-11T08:18:52.058Z,1.6
2018-07-11T08:23:54.309Z,1
2018-07-11T08:28:56.514Z,2.6
2018-07-11T08:33:58.933Z,1.2
2018-07-11T08:39:01.220Z,1.2
2018-07-11T08:44:03.499Z,2.3
2018-07-11T08:49:05.873Z,1.8
2018-07-11T08:54:08.147Z,3.3
2018-07-11T08:59:10.477Z,1.6
2018-07-11T09:04:12.799Z,1.4
2018-07-11T09:09:15.077Z,1
2018-07-11T09:14:17.194Z,1.2
2018-07-11T09:19:19.640Z,1.4
2018-07-11T09:24:21.823Z,2.2
2018-07-11T09:29:24.142Z,1.7
2018-07-11T09:34:26.441Z,1.7
2018-07-11T09:39:28.727Z,4.2
2018-07-11T09:44:31.215Z,1
2018-07-11T09:49:33.312Z,2
2018-07-11T09:54:35.532Z,1.4
2018-07-11T09:59:37.815Z,1.4
2018-07-11T10:04:40.252Z,1.6
2018-07-11T10:09:42.509Z,1
2018-07-11T10:14:44.947Z,1.2
2018-07-11T10:19:47.195Z,0.8
2018-07-11T10:24:49.392Z,0.8
2018-07-11T10:29:51.590Z,2.1
2018-07-11T10:34:54.057Z,1.7
2018-07-11T10:39:56.256Z,0.8
2018-07-11T10:44:58.663Z,1.4
2018-07-11T10:50:00.949Z,2
2018-07-11T10:55:03.137Z,1.1
2018-07-11T11:00:05.385Z,1
2018-07-11T11:05:07.715Z,1.2
2018-07-11T11:10:10.125Z,1.6
2018-07-11T11:15:12.397Z,1.6
2018-07-11T11:20:14.575Z,1
2018-07-11T11:25:16.862Z,0.6
2018-07-11T11:30:19.292Z,0.8
2018-07-11T11:35:21.426Z,2.5
2018-07-11T11:40:23.811Z,1
2018-07-11T11:45:26.139Z,0.4
2018-07-11T11:50:28.368Z,1.1
2018-07-11T11:55:30.861Z,1.8
2018-07-11T12:00:32.942Z,1.1
2018-07-11T12:05:35.302Z,1.4
2018-07-11T12:10:37.531Z,1
2018-07-11T12:15:39.782Z,1.2
2018-07-11T12:20:42.227Z,1.3
2018-07-11T12:25:44.534Z,1.7
2018-07-11T12:30:46.667Z,1.8
2018-07-11T12:35:49.006Z,1.8
2018-07-11T12:40:51.438Z,0.9
2018-07-11T12:45:53.687Z,1.2
2018-07-11T12:55:58.156Z,1.5
2018-07-11T13:01:00.704Z,2.3
2018-07-11T13:06:02.764Z,1.3
2018-07-11T13:11:05.162Z,2.1
2018-07-11T13:16:07.522Z,2.3
2018-07-11T13:21:09.773Z,1.6
2018-07-11T13:26:11.930Z,2.5
2018-07-11T13:31:14.261Z,1.6
2018-07-11T13:36:16.625Z,3
2018-07-11T13:41:18.902Z,2.9
2018-07-11T13:46:21.221Z,1.2
2018-07-11T13:51:23.406Z,2.2
2018-07-11T13:56:25.792Z,2.2
2018-07-11T14:01:28.008Z,1.7
2018-07-11T14:06:30.229Z,2.2
2018-07-11T14:11:32.638Z,1
2018-07-11T14:16:34.986Z,1.4
2018-07-11T14:21:37.202Z,1
2018-07-11T14:26:39.475Z,2.3
2018-07-11T14:31:41.959Z,1.8
2018-07-11T14:36:44.174Z,2.3
2018-07-11T14:41:46.400Z,2.5
2018-07-11T14:46:48.832Z,2.4
2018-07-11T14:51:51.000Z,1.6
2018-07-11T14:56:53.214Z,1.4
2018-07-11T15:01:55.673Z,1.1
2018-07-11T15:06:57.928Z,1.4
2018-07-11T15:12:00.260Z,0.9
2018-07-11T15:17:02.529Z,1.1
2018-07-11T15:22:04.835Z,1.1
2018-07-11T15:27:07.058Z,0.8
2018-07-11T15:32:09.326Z,2.1
2018-07-11T15:42:14.011Z,1.6
2018-07-11T15:47:16.335Z,2.9
2018-07-11T15:52:18.605Z,0.8
2018-07-11T15:57:20.868Z,2.6
2018-07-11T16:02:23.095Z,4.5
2018-07-11T16:07:25.404Z,1.2
2018-07-11T16:12:27.816Z,1.7
2018-07-11T16:17:30.113Z,1.5
2018-07-11T16:22:32.237Z,2.1
2018-07-11T16:27:34.535Z,0.8
2018-07-11T16:32:36.937Z,1
2018-07-11T16:37:39.182Z,2.4
2018-07-11T16:42:41.433Z,2.3
2018-07-11T16:47:43.838Z,2.4
2018-07-11T16:52:46.156Z,3.3
2018-07-11T16:57:48.335Z,1.2
2018-07-11T17:02:50.751Z,1.8
2018-07-11T17:07:53.108Z,2
2018-07-11T17:12:55.267Z,3.2
2018-07-11T17:17:57.545Z,1.4
2018-07-11T17:22:59.902Z,0.8
2018-07-11T17:28:02.126Z,0.7
2018-07-11T17:33:04.385Z,1.7
2018-07-11T17:38:06.770Z,1.3
2018-07-11T17:43:08.992Z,0.8
2018-07-11T17:48:11.259Z,0.1
2018-07-11T17:53:13.617Z,1.7
2018-07-11T17:58:16.012Z,0.8
2018-07-11T18:03:18.118Z,2
2018-07-11T18:08:20.462Z,2
2018-07-11T18:13:22.871Z,1.6
2018-07-11T18:18:24.968Z,1.3
2018-07-11T18:23:27.381Z,1.6
2018-07-11T18:28:29.757Z,1.9
2018-07-11T18:33:31.969Z,1.5
2018-07-11T18:38:34.280Z,1.8
2018-07-11T18:43:36.492Z,1.2
2018-07-11T18:48:38.768Z,1.3
2018-07-11T18:53:41.200Z,1.3
2018-07-11T18:58:43.396Z,1
2018-07-11T19:03:45.638Z,2.2
2018-07-11T19:08:48.033Z,1.8
2018-07-11T19:13:50.349Z,0.7
2018-07-11T19:18:52.595Z,2.3
2018-07-11T19:23:54.871Z,2.1
2018-07-11T19:28:57.265Z,0.3
2018-07-11T19:33:59.553Z,1.5
2018-07-11T19:39:01.774Z,0.9
2018-07-11T19:44:04.064Z,1.3
2018-07-11T19:49:06.289Z,1.4
2018-07-11T19:54:08.597Z,2.2
2018-07-11T19:59:10.953Z,1.6
2018-07-11T20:04:13.209Z,1.1
2018-07-11T20:09:15.446Z,0.9
2018-07-11T20:14:17.918Z,2.3
2018-07-11T20:19:20.319Z,1.6
2018-07-11T20:29:24.852Z,2.8
2018-07-11T20:34:27.082Z,3.2
2018-07-11T20:39:29.356Z,2.3
2018-07-11T20:44:32.213Z,2.8
2018-07-11T20:49:33.922Z,1.9
2018-07-11T20:54:36.164Z,1.4
2018-07-11T20:59:38.497Z,3.3
2018-07-11T21:04:40.731Z,3
2018-07-11T21:09:43.049Z,4.1
2018-07-11T21:14:45.336Z,3.4
2018-07-11T21:19:48.182Z,3.8
2018-07-11T21:24:51.445Z,4.6
2018-07-11T21:29:52.945Z,4
2018-07-11T21:34:54.521Z,6.3
2018-07-11T21:39:56.942Z,7.3
2018-07-11T21:44:59.109Z,7.9
2018-07-11T21:50:06.624Z,6.1
2018-07-11T21:55:03.737Z,7.6
2018-07-11T22:00:06.196Z,4
2018-07-11T22:05:08.325Z,4.4
2018-07-11T22:10:10.605Z,3.5
2018-07-11T22:15:12.970Z,6.1
2018-07-11T22:20:17.556Z,5.4
2018-07-11T22:25:17.392Z,5.9
2018-07-11T22:30:19.732Z,7.5
2018-07-11T22:35:22.181Z,8.2
2018-07-11T22:40:24.299Z,5.5
2018-07-11T22:45:26.636Z,6.5
2018-07-11T22:50:28.978Z,3.8
2018-07-11T22:55:31.234Z,8.6
2018-07-11T23:00:33.453Z,13.8
2018-07-11T23:05:35.720Z,9.1
2018-07-11T23:10:38.165Z,7.2
2018-07-11T23:15:40.466Z,7.1
2018-07-11T23:20:42.642Z,10.6
2018-07-11T23:25:45.075Z,8.1
2018-07-11T23:30:47.311Z,12.7
2018-07-11T23:35:49.592Z,6.5
2018-07-11T23:40:51.974Z,7.6
2018-07-11T23:45:54.237Z,8.4
2018-07-11T23:50:56.444Z,8.9
2018-07-11T23:55:58.746Z,8.2
